メインページ
METAR-TAF:

METAR-TAF

空港 :

ウシュアイア, アルゼンチン

ウシュアイア国際空港

緯度: 54-48S, 経度: 068-19W, 海抜: 16m

現時点の気象観測

当レポートは37分前の21:00(UTC)に作成
北/北西の風 4kt
気温 6°C
湿度 70%
気圧 1007 hPa
視程10km以上
高度3500ftの雲はほとんどない

METAR: SAWH 232100Z 34004KT 9999 FEW035 06/01 Q1007

時間: 18:37 (21:37 UTC)

予報

当レポートは4時間37分前の17:00(UTC)に作成
予報は23日の 18時(UTC)から 24日の 18時(UTC)まで有効
北/北東の風 15kt
視程10km以上
高度3000ftの雲は散在している
高度9000ftの雲は散在している
24日の 08時(UTC)から 24日の 10時(UTC)まで徐々に
高度3000ftの千切れ雲あり
高度6000ftの千切れ雲あり

TAF: SAWH 231700Z 2318/2418 02015KT 9999 SCT030 SCT090 TX07/2318Z TN04/2411Z BECMG 2408/2410 BKN030 BKN060

4,000以上の空港の気象観測と天気予報(METAR報とTAF報)

利用可能な観測所は地図上に黄色い丸と赤い丸で示す。

丸の上にカーソルを重ねると観測所名を参照できる。

次にクリックすると気象観測と天気予報を参照できる。

マップの切り替え:黒色「×」印の緑ボタンをクリックして拡大、「-」印の緑ボタンをクリックして縮小、緑色の三角印をクリックして隣りの地図に切り替え


METAR-TAF: